sensor_id;sensor_type;location;lat;lon;timestamp;P1;durP1;ratioP1;P2;durP2;ratioP2
72924;SDS011;61070;50.794;7.054;2022-11-15T00:01:41;17.25;;;9.60;;
72924;SDS011;61070;50.794;7.054;2022-11-15T00:04:06;19.98;;;9.98;;
72924;SDS011;61070;50.794;7.054;2022-11-15T00:06:32;20.75;;;10.52;;
72924;SDS011;61070;50.794;7.054;2022-11-15T00:08:57;17.05;;;10.18;;
72924;SDS011;61070;50.794;7.054;2022-11-15T00:11:24;20.38;;;9.95;;
72924;SDS011;61070;50.794;7.054;2022-11-15T00:13:49;21.10;;;8.88;;
72924;SDS011;61070;50.794;7.054;2022-11-15T00:16:14;15.48;;;8.23;;
72924;SDS011;61070;50.794;7.054;2022-11-15T00:18:40;15.85;;;9.43;;
72924;SDS011;61070;50.794;7.054;2022-11-15T00:21:07;16.63;;;9.57;;
72924;SDS011;61070;50.794;7.054;2022-11-15T00:23:34;13.55;;;9.25;;
72924;SDS011;61070;50.794;7.054;2022-11-15T00:25:59;18.95;;;10.27;;
72924;SDS011;61070;50.794;7.054;2022-11-15T00:28:25;17.77;;;9.73;;
72924;SDS011;61070;50.794;7.054;2022-11-15T00:30:50;15.82;;;9.85;;
72924;SDS011;61070;50.794;7.054;2022-11-15T00:33:16;17.77;;;9.88;;
72924;SDS011;61070;50.794;7.054;2022-11-15T00:35:41;21.95;;;10.35;;
72924;SDS011;61070;50.794;7.054;2022-11-15T00:38:06;18.45;;;10.00;;
72924;SDS011;61070;50.794;7.054;2022-11-15T00:40:32;21.75;;;10.07;;
72924;SDS011;61070;50.794;7.054;2022-11-15T00:42:57;16.38;;;9.60;;
72924;SDS011;61070;50.794;7.054;2022-11-15T00:45:23;16.23;;;9.80;;
72924;SDS011;61070;50.794;7.054;2022-11-15T00:47:49;16.83;;;9.10;;
72924;SDS011;61070;50.794;7.054;2022-11-15T00:50:15;16.58;;;10.27;;
72924;SDS011;61070;50.794;7.054;2022-11-15T00:52:40;18.35;;;10.40;;
72924;SDS011;61070;50.794;7.054;2022-11-15T00:55:06;18.80;;;10.00;;
72924;SDS011;61070;50.794;7.054;2022-11-15T00:57:31;17.17;;;10.60;;
72924;SDS011;61070;50.794;7.054;2022-11-15T00:59:56;19.60;;;9.73;;
72924;SDS011;61070;50.794;7.054;2022-11-15T01:02:22;16.80;;;9.70;;
72924;SDS011;61070;50.794;7.054;2022-11-15T01:04:47;14.63;;;9.63;;
72924;SDS011;61070;50.794;7.054;2022-11-15T01:07:12;23.77;;;10.88;;
72924;SDS011;61070;50.794;7.054;2022-11-15T01:09:38;19.90;;;10.23;;
72924;SDS011;61070;50.794;7.054;2022-11-15T01:12:03;17.08;;;9.68;;
72924;SDS011;61070;50.794;7.054;2022-11-15T01:14:28;22.35;;;9.77;;
72924;SDS011;61070;50.794;7.054;2022-11-15T01:16:54;18.23;;;10.10;;
72924;SDS011;61070;50.794;7.054;2022-11-15T01:19:19;16.27;;;9.05;;
72924;SDS011;61070;50.794;7.054;2022-11-15T01:21:45;19.15;;;9.93;;
72924;SDS011;61070;50.794;7.054;2022-11-15T01:24:11;15.48;;;9.20;;
72924;SDS011;61070;50.794;7.054;2022-11-15T01:26:37;18.05;;;9.85;;
72924;SDS011;61070;50.794;7.054;2022-11-15T01:29:03;19.38;;;9.63;;
72924;SDS011;61070;50.794;7.054;2022-11-15T01:31:28;14.40;;;8.90;;
72924;SDS011;61070;50.794;7.054;2022-11-15T01:33:53;16.45;;;9.57;;
72924;SDS011;61070;50.794;7.054;2022-11-15T01:36:20;14.48;;;8.57;;
72924;SDS011;61070;50.794;7.054;2022-11-15T01:38:52;19.27;;;9.00;;
72924;SDS011;61070;50.794;7.054;2022-11-15T01:41:23;15.10;;;8.68;;
72924;SDS011;61070;50.794;7.054;2022-11-15T01:43:54;18.15;;;8.80;;
72924;SDS011;61070;50.794;7.054;2022-11-15T01:48:46;22.67;;;9.73;;
72924;SDS011;61070;50.794;7.054;2022-11-15T01:51:15;14.80;;;9.00;;
72924;SDS011;61070;50.794;7.054;2022-11-15T01:53:44;16.85;;;9.48;;
72924;SDS011;61070;50.794;7.054;2022-11-15T01:56:13;15.52;;;8.55;;
72924;SDS011;61070;50.794;7.054;2022-11-15T01:58:43;15.48;;;7.95;;
72924;SDS011;61070;50.794;7.054;2022-11-15T02:01:11;18.23;;;8.77;;
72924;SDS011;61070;50.794;7.054;2022-11-15T02:03:42;14.23;;;8.73;;
72924;SDS011;61070;50.794;7.054;2022-11-15T02:06:13;13.15;;;7.65;;
72924;SDS011;61070;50.794;7.054;2022-11-15T02:08:39;13.57;;;8.60;;
72924;SDS011;61070;50.794;7.054;2022-11-15T02:11:07;14.20;;;8.52;;
72924;SDS011;61070;50.794;7.054;2022-11-15T02:13:33;19.42;;;9.73;;
72924;SDS011;61070;50.794;7.054;2022-11-15T02:16:02;14.38;;;8.55;;
72924;SDS011;61070;50.794;7.054;2022-11-15T02:18:37;16.15;;;8.18;;
72924;SDS011;61070;50.794;7.054;2022-11-15T02:21:13;14.35;;;8.63;;
72924;SDS011;61070;50.794;7.054;2022-11-15T02:29:19;14.27;;;7.57;;
72924;SDS011;61070;50.794;7.054;2022-11-15T02:32:16;10.80;;;7.85;;
72924;SDS011;61070;50.794;7.054;2022-11-15T02:34:50;13.82;;;7.00;;
72924;SDS011;61070;50.794;7.054;2022-11-15T02:37:32;16.73;;;7.30;;
72924;SDS011;61070;50.794;7.054;2022-11-15T02:40:02;12.88;;;7.32;;
72924;SDS011;61070;50.794;7.054;2022-11-15T02:42:39;12.13;;;7.30;;
72924;SDS011;61070;50.794;7.054;2022-11-15T02:45:30;11.30;;;6.95;;
72924;SDS011;61070;50.794;7.054;2022-11-15T02:48:01;15.70;;;7.95;;
72924;SDS011;61070;50.794;7.054;2022-11-15T02:50:30;10.90;;;6.47;;
72924;SDS011;61070;50.794;7.054;2022-11-15T02:52:57;13.40;;;8.25;;
72924;SDS011;61070;50.794;7.054;2022-11-15T02:55:26;14.38;;;7.78;;
72924;SDS011;61070;50.794;7.054;2022-11-15T02:57:52;11.95;;;6.50;;
72924;SDS011;61070;50.794;7.054;2022-11-15T03:00:22;12.02;;;6.40;;
72924;SDS011;61070;50.794;7.054;2022-11-15T03:08:16;9.98;;;6.03;;
72924;SDS011;61070;50.794;7.054;2022-11-15T03:10:57;9.80;;;5.68;;
72924;SDS011;61070;50.794;7.054;2022-11-15T03:16:29;10.23;;;6.80;;
72924;SDS011;61070;50.794;7.054;2022-11-15T03:19:12;12.25;;;6.43;;
72924;SDS011;61070;50.794;7.054;2022-11-15T03:21:41;8.98;;;5.95;;
72924;SDS011;61070;50.794;7.054;2022-11-15T03:24:08;10.40;;;6.90;;
72924;SDS011;61070;50.794;7.054;2022-11-15T03:26:34;10.63;;;6.30;;
72924;SDS011;61070;50.794;7.054;2022-11-15T03:29:13;12.45;;;7.25;;
72924;SDS011;61070;50.794;7.054;2022-11-15T03:31:46;10.23;;;7.10;;
72924;SDS011;61070;50.794;7.054;2022-11-15T03:39:22;13.25;;;6.53;;
72924;SDS011;61070;50.794;7.054;2022-11-15T03:41:52;11.95;;;6.32;;
72924;SDS011;61070;50.794;7.054;2022-11-15T03:44:51;11.82;;;7.72;;
72924;SDS011;61070;50.794;7.054;2022-11-15T03:47:48;13.43;;;6.68;;
72924;SDS011;61070;50.794;7.054;2022-11-15T03:50:19;16.63;;;7.57;;
72924;SDS011;61070;50.794;7.054;2022-11-15T03:52:46;11.10;;;7.45;;
72924;SDS011;61070;50.794;7.054;2022-11-15T03:55:15;12.38;;;7.47;;
72924;SDS011;61070;50.794;7.054;2022-11-15T03:57:43;13.32;;;8.07;;
72924;SDS011;61070;50.794;7.054;2022-11-15T04:00:08;11.90;;;7.05;;
72924;SDS011;61070;50.794;7.054;2022-11-15T04:02:34;11.32;;;7.18;;
72924;SDS011;61070;50.794;7.054;2022-11-15T04:05:00;9.75;;;7.05;;
72924;SDS011;61070;50.794;7.054;2022-11-15T04:07:25;11.60;;;6.78;;
72924;SDS011;61070;50.794;7.054;2022-11-15T04:09:50;10.63;;;7.07;;
72924;SDS011;61070;50.794;7.054;2022-11-15T04:15:01;12.38;;;6.53;;
72924;SDS011;61070;50.794;7.054;2022-11-15T04:17:36;8.98;;;6.35;;
72924;SDS011;61070;50.794;7.054;2022-11-15T04:20:16;9.35;;;7.22;;
72924;SDS011;61070;50.794;7.054;2022-11-15T04:23:05;12.05;;;6.50;;
72924;SDS011;61070;50.794;7.054;2022-11-15T04:25:53;11.55;;;6.85;;
72924;SDS011;61070;50.794;7.054;2022-11-15T04:28:19;11.50;;;6.68;;
72924;SDS011;61070;50.794;7.054;2022-11-15T04:30:45;11.43;;;7.38;;
72924;SDS011;61070;50.794;7.054;2022-11-15T04:33:10;11.40;;;7.05;;
72924;SDS011;61070;50.794;7.054;2022-11-15T04:35:36;11.77;;;6.18;;
72924;SDS011;61070;50.794;7.054;2022-11-15T04:38:02;12.15;;;7.15;;
72924;SDS011;61070;50.794;7.054;2022-11-15T04:40:30;9.98;;;6.38;;
72924;SDS011;61070;50.794;7.054;2022-11-15T04:42:55;10.90;;;6.80;;
72924;SDS011;61070;50.794;7.054;2022-11-15T04:45:20;11.10;;;6.68;;
72924;SDS011;61070;50.794;7.054;2022-11-15T04:47:46;9.95;;;6.47;;
72924;SDS011;61070;50.794;7.054;2022-11-15T04:50:12;10.73;;;6.65;;
72924;SDS011;61070;50.794;7.054;2022-11-15T04:52:41;10.20;;;6.97;;
72924;SDS011;61070;50.794;7.054;2022-11-15T04:55:09;9.88;;;5.97;;
72924;SDS011;61070;50.794;7.054;2022-11-15T04:57:35;12.68;;;7.13;;
72924;SDS011;61070;50.794;7.054;2022-11-15T05:00:01;11.18;;;6.82;;
72924;SDS011;61070;50.794;7.054;2022-11-15T05:02:27;9.98;;;7.03;;
72924;SDS011;61070;50.794;7.054;2022-11-15T05:05:13;11.80;;;6.57;;
72924;SDS011;61070;50.794;7.054;2022-11-15T05:07:38;8.05;;;5.63;;
72924;SDS011;61070;50.794;7.054;2022-11-15T05:10:03;14.20;;;5.95;;
72924;SDS011;61070;50.794;7.054;2022-11-15T05:12:29;8.45;;;6.13;;
72924;SDS011;61070;50.794;7.054;2022-11-15T05:14:54;8.10;;;5.22;;
72924;SDS011;61070;50.794;7.054;2022-11-15T05:17:19;12.05;;;6.50;;
72924;SDS011;61070;50.794;7.054;2022-11-15T05:19:45;8.63;;;5.97;;
72924;SDS011;61070;50.794;7.054;2022-11-15T05:22:10;8.73;;;6.15;;
72924;SDS011;61070;50.794;7.054;2022-11-15T05:24:35;10.15;;;5.50;;
72924;SDS011;61070;50.794;7.054;2022-11-15T05:27:00;10.85;;;5.95;;
72924;SDS011;61070;50.794;7.054;2022-11-15T05:29:26;8.35;;;5.32;;
72924;SDS011;61070;50.794;7.054;2022-11-15T05:31:51;7.07;;;4.88;;
72924;SDS011;61070;50.794;7.054;2022-11-15T05:34:16;10.50;;;4.78;;
72924;SDS011;61070;50.794;7.054;2022-11-15T05:36:43;7.00;;;5.20;;
72924;SDS011;61070;50.794;7.054;2022-11-15T05:39:10;5.63;;;4.53;;
72924;SDS011;61070;50.794;7.054;2022-11-15T05:41:40;7.22;;;5.30;;
72924;SDS011;61070;50.794;7.054;2022-11-15T05:44:16;6.85;;;5.38;;
72924;SDS011;61070;50.794;7.054;2022-11-15T05:46:44;10.63;;;6.15;;
72924;SDS011;61070;50.794;7.054;2022-11-15T05:49:11;8.38;;;5.53;;
72924;SDS011;61070;50.794;7.054;2022-11-15T05:51:40;10.05;;;6.70;;
72924;SDS011;61070;50.794;7.054;2022-11-15T05:54:06;11.15;;;5.63;;
72924;SDS011;61070;50.794;7.054;2022-11-15T05:56:32;7.53;;;4.55;;
72924;SDS011;61070;50.794;7.054;2022-11-15T05:58:58;9.27;;;4.82;;
72924;SDS011;61070;50.794;7.054;2022-11-15T06:01:24;9.85;;;4.57;;
72924;SDS011;61070;50.794;7.054;2022-11-15T06:03:51;6.82;;;4.03;;
72924;SDS011;61070;50.794;7.054;2022-11-15T06:06:17;10.02;;;4.30;;
72924;SDS011;61070;50.794;7.054;2022-11-15T06:08:42;6.45;;;4.20;;
72924;SDS011;61070;50.794;7.054;2022-11-15T06:11:08;8.10;;;4.10;;
72924;SDS011;61070;50.794;7.054;2022-11-15T06:13:33;6.90;;;3.88;;
72924;SDS011;61070;50.794;7.054;2022-11-15T06:15:59;9.40;;;4.10;;
72924;SDS011;61070;50.794;7.054;2022-11-15T06:18:24;7.97;;;4.00;;
72924;SDS011;61070;50.794;7.054;2022-11-15T06:20:50;8.55;;;4.22;;
72924;SDS011;61070;50.794;7.054;2022-11-15T06:23:15;7.38;;;4.10;;
72924;SDS011;61070;50.794;7.054;2022-11-15T06:25:40;6.78;;;3.95;;
72924;SDS011;61070;50.794;7.054;2022-11-15T06:28:06;10.00;;;4.30;;
72924;SDS011;61070;50.794;7.054;2022-11-15T06:30:31;9.77;;;3.72;;
72924;SDS011;61070;50.794;7.054;2022-11-15T06:33:00;8.15;;;4.05;;
72924;SDS011;61070;50.794;7.054;2022-11-15T06:35:26;9.73;;;4.00;;
72924;SDS011;61070;50.794;7.054;2022-11-15T06:37:52;8.20;;;3.72;;
72924;SDS011;61070;50.794;7.054;2022-11-15T06:40:17;12.50;;;4.35;;
72924;SDS011;61070;50.794;7.054;2022-11-15T06:42:42;5.85;;;3.78;;
72924;SDS011;61070;50.794;7.054;2022-11-15T06:45:08;6.03;;;4.00;;
72924;SDS011;61070;50.794;7.054;2022-11-15T06:47:33;8.32;;;3.72;;
72924;SDS011;61070;50.794;7.054;2022-11-15T06:49:58;7.07;;;4.13;;
72924;SDS011;61070;50.794;7.054;2022-11-15T06:52:24;5.60;;;3.63;;
72924;SDS011;61070;50.794;7.054;2022-11-15T06:54:49;5.38;;;2.78;;
72924;SDS011;61070;50.794;7.054;2022-11-15T06:57:14;5.43;;;3.47;;
72924;SDS011;61070;50.794;7.054;2022-11-15T06:59:40;3.65;;;2.97;;
72924;SDS011;61070;50.794;7.054;2022-11-15T07:02:05;10.52;;;4.13;;
72924;SDS011;61070;50.794;7.054;2022-11-15T07:04:30;7.07;;;4.78;;
72924;SDS011;61070;50.794;7.054;2022-11-15T07:06:55;4.55;;;3.22;;
72924;SDS011;61070;50.794;7.054;2022-11-15T07:09:21;5.88;;;3.65;;
72924;SDS011;61070;50.794;7.054;2022-11-15T07:11:46;9.88;;;3.63;;
72924;SDS011;61070;50.794;7.054;2022-11-15T07:14:11;5.22;;;3.03;;
72924;SDS011;61070;50.794;7.054;2022-11-15T07:16:37;5.80;;;3.53;;
72924;SDS011;61070;50.794;7.054;2022-11-15T07:19:02;5.20;;;3.03;;
72924;SDS011;61070;50.794;7.054;2022-11-15T07:21:28;8.15;;;3.58;;
72924;SDS011;61070;50.794;7.054;2022-11-15T07:23:53;6.03;;;3.97;;
72924;SDS011;61070;50.794;7.054;2022-11-15T07:26:18;5.97;;;3.80;;
72924;SDS011;61070;50.794;7.054;2022-11-15T07:28:44;6.53;;;3.30;;
72924;SDS011;61070;50.794;7.054;2022-11-15T07:31:09;5.68;;;3.33;;
72924;SDS011;61070;50.794;7.054;2022-11-15T07:33:35;4.57;;;2.90;;
72924;SDS011;61070;50.794;7.054;2022-11-15T07:36:01;4.05;;;2.72;;
72924;SDS011;61070;50.794;7.054;2022-11-15T07:38:29;6.20;;;3.25;;
72924;SDS011;61070;50.794;7.054;2022-11-15T07:40:56;6.47;;;3.35;;
72924;SDS011;61070;50.794;7.054;2022-11-15T07:43:22;6.45;;;3.80;;
72924;SDS011;61070;50.794;7.054;2022-11-15T07:45:47;11.25;;;5.18;;
72924;SDS011;61070;50.794;7.054;2022-11-15T07:48:13;9.68;;;4.15;;
72924;SDS011;61070;50.794;7.054;2022-11-15T07:50:41;8.82;;;3.85;;
72924;SDS011;61070;50.794;7.054;2022-11-15T07:53:07;6.70;;;3.17;;
72924;SDS011;61070;50.794;7.054;2022-11-15T07:55:34;4.78;;;2.92;;
72924;SDS011;61070;50.794;7.054;2022-11-15T07:58:02;4.95;;;2.80;;
72924;SDS011;61070;50.794;7.054;2022-11-15T08:00:29;10.25;;;3.60;;
72924;SDS011;61070;50.794;7.054;2022-11-15T08:03:04;5.15;;;2.88;;
72924;SDS011;61070;50.794;7.054;2022-11-15T08:05:35;4.45;;;2.72;;
72924;SDS011;61070;50.794;7.054;2022-11-15T08:08:02;4.13;;;2.40;;
72924;SDS011;61070;50.794;7.054;2022-11-15T08:10:28;6.25;;;2.72;;
72924;SDS011;61070;50.794;7.054;2022-11-15T08:12:57;5.70;;;2.78;;
72924;SDS011;61070;50.794;7.054;2022-11-15T08:15:26;3.33;;;2.30;;
72924;SDS011;61070;50.794;7.054;2022-11-15T08:17:53;5.20;;;2.70;;
72924;SDS011;61070;50.794;7.054;2022-11-15T08:20:20;9.20;;;3.15;;
72924;SDS011;61070;50.794;7.054;2022-11-15T08:22:45;18.05;;;4.03;;
72924;SDS011;61070;50.794;7.054;2022-11-15T08:25:10;32.13;;;7.10;;
72924;SDS011;61070;50.794;7.054;2022-11-15T08:27:35;34.30;;;5.30;;
72924;SDS011;61070;50.794;7.054;2022-11-15T08:30:01;50.60;;;8.02;;
72924;SDS011;61070;50.794;7.054;2022-11-15T08:32:26;36.67;;;6.85;;
72924;SDS011;61070;50.794;7.054;2022-11-15T08:34:51;35.90;;;5.60;;
72924;SDS011;61070;50.794;7.054;2022-11-15T08:37:17;10.07;;;3.00;;
72924;SDS011;61070;50.794;7.054;2022-11-15T08:39:42;6.78;;;3.22;;
72924;SDS011;61070;50.794;7.054;2022-11-15T08:42:07;4.95;;;2.47;;
72924;SDS011;61070;50.794;7.054;2022-11-15T08:44:32;8.32;;;3.13;;
72924;SDS011;61070;50.794;7.054;2022-11-15T08:46:58;4.57;;;2.63;;
72924;SDS011;61070;50.794;7.054;2022-11-15T08:49:23;4.68;;;2.50;;
72924;SDS011;61070;50.794;7.054;2022-11-15T08:51:48;8.90;;;2.72;;
72924;SDS011;61070;50.794;7.054;2022-11-15T08:54:14;8.68;;;2.83;;
72924;SDS011;61070;50.794;7.054;2022-11-15T08:56:39;6.95;;;2.28;;
72924;SDS011;61070;50.794;7.054;2022-11-15T08:59:04;8.13;;;2.28;;
72924;SDS011;61070;50.794;7.054;2022-11-15T09:01:30;5.43;;;2.40;;
72924;SDS011;61070;50.794;7.054;2022-11-15T09:03:55;7.93;;;2.10;;
72924;SDS011;61070;50.794;7.054;2022-11-15T09:06:20;2.47;;;1.60;;
72924;SDS011;61070;50.794;7.054;2022-11-15T09:08:46;3.83;;;1.67;;
72924;SDS011;61070;50.794;7.054;2022-11-15T09:11:11;5.60;;;1.35;;
72924;SDS011;61070;50.794;7.054;2022-11-15T09:13:37;2.92;;;1.00;;
72924;SDS011;61070;50.794;7.054;2022-11-15T09:16:03;3.33;;;0.90;;
72924;SDS011;61070;50.794;7.054;2022-11-15T09:18:29;1.65;;;0.90;;
72924;SDS011;61070;50.794;7.054;2022-11-15T09:20:55;2.25;;;0.77;;
72924;SDS011;61070;50.794;7.054;2022-11-15T09:23:24;6.60;;;0.93;;
72924;SDS011;61070;50.794;7.054;2022-11-15T09:25:51;5.65;;;1.08;;
72924;SDS011;61070;50.794;7.054;2022-11-15T09:28:16;2.78;;;0.95;;
72924;SDS011;61070;50.794;7.054;2022-11-15T09:30:42;4.85;;;0.93;;
72924;SDS011;61070;50.794;7.054;2022-11-15T09:33:08;0.77;;;0.60;;
72924;SDS011;61070;50.794;7.054;2022-11-15T09:35:34;4.40;;;0.98;;
72924;SDS011;61070;50.794;7.054;2022-11-15T09:38:00;2.38;;;0.90;;
72924;SDS011;61070;50.794;7.054;2022-11-15T09:40:26;1.58;;;0.60;;
72924;SDS011;61070;50.794;7.054;2022-11-15T09:45:37;1.80;;;0.90;;
72924;SDS011;61070;50.794;7.054;2022-11-15T09:50:57;2.35;;;1.25;;
72924;SDS011;61070;50.794;7.054;2022-11-15T09:53:27;1.10;;;0.50;;
72924;SDS011;61070;50.794;7.054;2022-11-15T09:55:59;6.60;;;0.73;;
72924;SDS011;61070;50.794;7.054;2022-11-15T10:01:34;3.65;;;0.95;;
72924;SDS011;61070;50.794;7.054;2022-11-15T10:04:09;5.30;;;0.75;;
72924;SDS011;61070;50.794;7.054;2022-11-15T10:06:36;1.92;;;0.68;;
72924;SDS011;61070;50.794;7.054;2022-11-15T10:11:41;3.67;;;0.55;;
72924;SDS011;61070;50.794;7.054;2022-11-15T10:14:15;2.17;;;0.50;;
72924;SDS011;61070;50.794;7.054;2022-11-15T10:22:24;1.38;;;0.60;;
72924;SDS011;61070;50.794;7.054;2022-11-15T10:27:34;5.38;;;0.70;;
72924;SDS011;61070;50.794;7.054;2022-11-15T10:30:00;3.55;;;0.73;;
72924;SDS011;61070;50.794;7.054;2022-11-15T10:32:26;4.78;;;0.80;;
72924;SDS011;61070;50.794;7.054;2022-11-15T10:34:51;4.53;;;0.40;;
72924;SDS011;61070;50.794;7.054;2022-11-15T10:37:30;5.78;;;1.48;;
72924;SDS011;61070;50.794;7.054;2022-11-15T10:40:06;3.92;;;0.77;;
72924;SDS011;61070;50.794;7.054;2022-11-15T10:42:40;2.30;;;0.50;;
72924;SDS011;61070;50.794;7.054;2022-11-15T10:47:51;2.13;;;0.60;;
72924;SDS011;61070;50.794;7.054;2022-11-15T10:50:27;2.88;;;0.90;;
72924;SDS011;61070;50.794;7.054;2022-11-15T10:52:54;1.83;;;0.80;;
72924;SDS011;61070;50.794;7.054;2022-11-15T10:55:21;3.33;;;0.80;;
72924;SDS011;61070;50.794;7.054;2022-11-15T11:02:57;2.00;;;0.73;;
72924;SDS011;61070;50.794;7.054;2022-11-15T11:05:26;2.17;;;1.25;;
72924;SDS011;61070;50.794;7.054;2022-11-15T11:08:01;4.07;;;0.88;;
72924;SDS011;61070;50.794;7.054;2022-11-15T11:10:54;2.63;;;0.80;;
72924;SDS011;61070;50.794;7.054;2022-11-15T11:13:24;3.00;;;0.52;;
72924;SDS011;61070;50.794;7.054;2022-11-15T11:30:30;2.22;;;0.82;;
72924;SDS011;61070;50.794;7.054;2022-11-15T11:33:16;2.90;;;0.47;;
72924;SDS011;61070;50.794;7.054;2022-11-15T11:35:55;3.25;;;0.73;;
72924;SDS011;61070;50.794;7.054;2022-11-15T11:44:29;3.88;;;0.68;;
72924;SDS011;61070;50.794;7.054;2022-11-15T11:50:15;3.55;;;0.90;;
72924;SDS011;61070;50.794;7.054;2022-11-15T11:52:57;2.42;;;0.82;;
72924;SDS011;61070;50.794;7.054;2022-11-15T12:03:46;5.28;;;1.00;;
72924;SDS011;61070;50.794;7.054;2022-11-15T12:09:02;2.60;;;0.98;;
72924;SDS011;61070;50.794;7.054;2022-11-15T12:11:58;2.63;;;1.20;;
72924;SDS011;61070;50.794;7.054;2022-11-15T12:14:42;5.35;;;0.98;;
72924;SDS011;61070;50.794;7.054;2022-11-15T12:17:13;7.80;;;2.15;;
72924;SDS011;61070;50.794;7.054;2022-11-15T12:19:41;2.67;;;0.80;;
72924;SDS011;61070;50.794;7.054;2022-11-15T12:22:13;3.55;;;0.70;;
72924;SDS011;61070;50.794;7.054;2022-11-15T12:29:59;5.13;;;1.00;;
72924;SDS011;61070;50.794;7.054;2022-11-15T12:34:59;3.08;;;1.33;;
72924;SDS011;61070;50.794;7.054;2022-11-15T12:40:04;3.10;;;1.52;;
72924;SDS011;61070;50.794;7.054;2022-11-15T12:42:59;1.98;;;1.02;;
72924;SDS011;61070;50.794;7.054;2022-11-15T12:45:28;3.42;;;1.38;;
72924;SDS011;61070;50.794;7.054;2022-11-15T12:48:21;5.90;;;1.73;;
72924;SDS011;61070;50.794;7.054;2022-11-15T13:12:01;5.78;;;2.05;;
72924;SDS011;61070;50.794;7.054;2022-11-15T13:19:44;7.70;;;2.10;;
72924;SDS011;61070;50.794;7.054;2022-11-15T13:22:12;3.20;;;2.33;;
72924;SDS011;61070;50.794;7.054;2022-11-15T13:24:56;6.85;;;2.08;;
72924;SDS011;61070;50.794;7.054;2022-11-15T13:27:21;3.88;;;1.80;;
72924;SDS011;61070;50.794;7.054;2022-11-15T13:29:47;4.95;;;2.20;;
72924;SDS011;61070;50.794;7.054;2022-11-15T13:32:13;3.78;;;2.03;;
72924;SDS011;61070;50.794;7.054;2022-11-15T13:34:42;7.18;;;2.05;;
72924;SDS011;61070;50.794;7.054;2022-11-15T13:37:13;3.35;;;2.00;;
72924;SDS011;61070;50.794;7.054;2022-11-15T13:39:54;6.10;;;2.50;;
72924;SDS011;61070;50.794;7.054;2022-11-15T13:42:34;9.15;;;2.85;;
72924;SDS011;61070;50.794;7.054;2022-11-15T13:45:00;4.82;;;2.05;;
72924;SDS011;61070;50.794;7.054;2022-11-15T13:47:29;5.13;;;2.20;;
72924;SDS011;61070;50.794;7.054;2022-11-15T13:49:58;4.07;;;2.15;;
72924;SDS011;61070;50.794;7.054;2022-11-15T13:52:28;8.02;;;2.10;;
72924;SDS011;61070;50.794;7.054;2022-11-15T13:54:58;3.72;;;2.00;;
72924;SDS011;61070;50.794;7.054;2022-11-15T13:57:42;6.20;;;2.30;;
72924;SDS011;61070;50.794;7.054;2022-11-15T14:02:56;6.10;;;2.70;;
72924;SDS011;61070;50.794;7.054;2022-11-15T14:05:30;4.93;;;2.40;;
72924;SDS011;61070;50.794;7.054;2022-11-15T14:07:56;3.55;;;2.30;;
72924;SDS011;61070;50.794;7.054;2022-11-15T14:10:28;5.40;;;2.17;;
72924;SDS011;61070;50.794;7.054;2022-11-15T14:12:58;6.47;;;2.03;;
72924;SDS011;61070;50.794;7.054;2022-11-15T14:15:26;4.25;;;2.45;;
72924;SDS011;61070;50.794;7.054;2022-11-15T14:17:57;6.15;;;2.10;;
72924;SDS011;61070;50.794;7.054;2022-11-15T14:22:57;3.70;;;2.22;;
72924;SDS011;61070;50.794;7.054;2022-11-15T14:28:28;16.10;;;2.08;;
72924;SDS011;61070;50.794;7.054;2022-11-15T14:30:47;7.40;;;2.42;;
72924;SDS011;61070;50.794;7.054;2022-11-15T14:33:19;7.22;;;1.95;;
72924;SDS011;61070;50.794;7.054;2022-11-15T14:35:47;3.03;;;1.50;;
72924;SDS011;61070;50.794;7.054;2022-11-15T14:38:13;4.40;;;1.80;;
72924;SDS011;61070;50.794;7.054;2022-11-15T14:40:39;4.60;;;1.70;;
72924;SDS011;61070;50.794;7.054;2022-11-15T14:43:04;4.43;;;1.85;;
72924;SDS011;61070;50.794;7.054;2022-11-15T14:45:29;4.63;;;1.92;;
72924;SDS011;61070;50.794;7.054;2022-11-15T14:47:55;4.55;;;1.40;;
72924;SDS011;61070;50.794;7.054;2022-11-15T14:50:21;4.85;;;1.90;;
72924;SDS011;61070;50.794;7.054;2022-11-15T14:52:46;4.15;;;1.67;;
72924;SDS011;61070;50.794;7.054;2022-11-15T14:57:44;4.50;;;1.75;;
72924;SDS011;61070;50.794;7.054;2022-11-15T15:00:10;3.85;;;1.50;;
72924;SDS011;61070;50.794;7.054;2022-11-15T15:02:36;4.18;;;1.67;;
72924;SDS011;61070;50.794;7.054;2022-11-15T15:05:09;2.92;;;1.67;;
72924;SDS011;61070;50.794;7.054;2022-11-15T15:07:39;5.70;;;1.48;;
72924;SDS011;61070;50.794;7.054;2022-11-15T15:10:04;2.85;;;1.50;;
72924;SDS011;61070;50.794;7.054;2022-11-15T15:12:30;6.15;;;1.80;;
72924;SDS011;61070;50.794;7.054;2022-11-15T15:14:55;5.60;;;1.63;;
72924;SDS011;61070;50.794;7.054;2022-11-15T15:17:21;4.90;;;1.63;;
72924;SDS011;61070;50.794;7.054;2022-11-15T15:19:46;3.63;;;1.75;;
72924;SDS011;61070;50.794;7.054;2022-11-15T15:22:15;4.25;;;1.42;;
72924;SDS011;61070;50.794;7.054;2022-11-15T15:24:42;7.55;;;1.80;;
72924;SDS011;61070;50.794;7.054;2022-11-15T15:27:08;2.70;;;1.83;;
72924;SDS011;61070;50.794;7.054;2022-11-15T15:29:34;3.55;;;1.40;;
72924;SDS011;61070;50.794;7.054;2022-11-15T15:31:59;5.60;;;1.65;;
72924;SDS011;61070;50.794;7.054;2022-11-15T15:34:24;4.53;;;1.50;;
72924;SDS011;61070;50.794;7.054;2022-11-15T15:37:05;6.15;;;1.77;;
72924;SDS011;61070;50.794;7.054;2022-11-15T15:39:44;6.05;;;2.20;;
72924;SDS011;61070;50.794;7.054;2022-11-15T15:42:09;4.35;;;2.03;;
72924;SDS011;61070;50.794;7.054;2022-11-15T15:44:34;7.22;;;2.17;;
72924;SDS011;61070;50.794;7.054;2022-11-15T15:46:59;2.60;;;1.88;;
72924;SDS011;61070;50.794;7.054;2022-11-15T15:49:25;2.85;;;1.70;;
72924;SDS011;61070;50.794;7.054;2022-11-15T15:51:50;4.63;;;1.70;;
72924;SDS011;61070;50.794;7.054;2022-11-15T15:54:15;3.67;;;1.85;;
72924;SDS011;61070;50.794;7.054;2022-11-15T15:56:40;3.58;;;1.70;;
72924;SDS011;61070;50.794;7.054;2022-11-15T15:59:06;4.25;;;2.00;;
72924;SDS011;61070;50.794;7.054;2022-11-15T16:01:31;3.35;;;1.75;;
72924;SDS011;61070;50.794;7.054;2022-11-15T16:03:56;2.88;;;1.33;;
72924;SDS011;61070;50.794;7.054;2022-11-15T16:06:37;3.60;;;1.65;;
72924;SDS011;61070;50.794;7.054;2022-11-15T16:09:08;1.90;;;1.35;;
72924;SDS011;61070;50.794;7.054;2022-11-15T16:11:37;4.28;;;1.35;;
72924;SDS011;61070;50.794;7.054;2022-11-15T16:14:03;4.00;;;1.52;;
72924;SDS011;61070;50.794;7.054;2022-11-15T16:16:28;4.10;;;1.58;;
72924;SDS011;61070;50.794;7.054;2022-11-15T16:18:53;2.80;;;1.63;;
72924;SDS011;61070;50.794;7.054;2022-11-15T16:21:19;4.25;;;1.90;;
72924;SDS011;61070;50.794;7.054;2022-11-15T16:23:44;5.38;;;1.73;;
72924;SDS011;61070;50.794;7.054;2022-11-15T16:26:28;2.70;;;1.88;;
72924;SDS011;61070;50.794;7.054;2022-11-15T16:28:54;4.82;;;2.15;;
72924;SDS011;61070;50.794;7.054;2022-11-15T16:31:19;3.75;;;2.00;;
72924;SDS011;61070;50.794;7.054;2022-11-15T16:33:48;2.72;;;1.70;;
72924;SDS011;61070;50.794;7.054;2022-11-15T16:38:51;3.47;;;1.90;;
72924;SDS011;61070;50.794;7.054;2022-11-15T16:41:17;3.35;;;1.80;;
72924;SDS011;61070;50.794;7.054;2022-11-15T16:43:44;4.68;;;1.65;;
72924;SDS011;61070;50.794;7.054;2022-11-15T16:46:14;2.92;;;1.80;;
72924;SDS011;61070;50.794;7.054;2022-11-15T16:48:44;3.92;;;1.83;;
72924;SDS011;61070;50.794;7.054;2022-11-15T16:51:09;4.43;;;1.90;;
72924;SDS011;61070;50.794;7.054;2022-11-15T16:53:35;5.80;;;1.80;;
72924;SDS011;61070;50.794;7.054;2022-11-15T16:56:00;4.57;;;1.70;;
72924;SDS011;61070;50.794;7.054;2022-11-15T16:58:26;6.75;;;2.28;;
72924;SDS011;61070;50.794;7.054;2022-11-15T17:00:52;6.75;;;2.03;;
72924;SDS011;61070;50.794;7.054;2022-11-15T17:03:19;2.78;;;1.60;;
72924;SDS011;61070;50.794;7.054;2022-11-15T17:05:45;4.90;;;1.95;;
72924;SDS011;61070;50.794;7.054;2022-11-15T17:08:10;5.00;;;1.73;;